createdAt,value
2018-04-27T00:00:01.035Z,4.70
2018-04-27T00:01:01.027Z,6.40
2018-04-27T00:02:01.020Z,2.70
2018-04-27T00:03:01.006Z,4.40
2018-04-27T00:04:00.999Z,6.50
2018-04-27T00:05:00.987Z,4.00
2018-04-27T00:06:00.975Z,3.30
2018-04-27T00:07:00.965Z,3.80
2018-04-27T00:08:00.954Z,3.70
2018-04-27T00:09:00.946Z,4.20
2018-04-27T00:10:00.942Z,4.60
2018-04-27T00:11:00.925Z,2.90
2018-04-27T00:12:00.914Z,2.80
2018-04-27T00:13:00.904Z,3.20
2018-04-27T00:14:00.895Z,3.50
2018-04-27T00:15:00.885Z,4.80
2018-04-27T00:16:00.875Z,5.90
2018-04-27T00:17:00.867Z,5.00
2018-04-27T00:18:00.855Z,6.50
2018-04-27T00:19:00.846Z,4.60
2018-04-27T00:20:00.835Z,5.70
2018-04-27T00:21:00.826Z,4.40
2018-04-27T00:22:00.816Z,5.20
2018-04-27T00:23:00.806Z,3.70
2018-04-27T00:24:00.794Z,3.80
2018-04-27T00:25:00.785Z,2.90
2018-04-27T00:26:00.774Z,4.90
2018-04-27T00:27:00.764Z,3.00
2018-04-27T00:28:00.755Z,6.40
2018-04-27T00:29:00.744Z,3.20
2018-04-27T00:30:00.736Z,5.10
2018-04-27T00:31:00.724Z,4.70
2018-04-27T00:32:00.713Z,4.20
2018-04-27T00:33:00.705Z,2.50
2018-04-27T00:34:00.695Z,2.80
2018-04-27T00:35:00.684Z,3.70
2018-04-27T00:36:00.673Z,4.40
2018-04-27T00:37:00.665Z,6.00
2018-04-27T00:38:00.654Z,3.50
2018-04-27T00:39:00.645Z,3.00
2018-04-27T00:40:00.632Z,5.40
2018-04-27T00:41:00.626Z,4.80
2018-04-27T00:42:00.612Z,6.20
2018-04-27T00:43:00.604Z,3.60
2018-04-27T00:44:00.597Z,2.80
2018-04-27T00:45:00.586Z,3.60
2018-04-27T00:46:00.572Z,4.00
2018-04-27T00:47:00.565Z,3.40
2018-04-27T00:48:00.549Z,5.60
2018-04-27T00:49:00.541Z,3.80
2018-04-27T00:50:00.530Z,5.50
2018-04-27T00:51:00.521Z,3.20
2018-04-27T00:52:00.511Z,4.40
2018-04-27T00:53:00.499Z,5.20
2018-04-27T00:54:00.488Z,5.20
2018-04-27T00:55:00.478Z,3.60
2018-04-27T00:56:00.468Z,4.80
2018-04-27T00:57:00.456Z,5.20
2018-04-27T00:58:00.447Z,4.70
2018-04-27T00:59:00.438Z,3.00
2018-04-27T01:00:00.428Z,4.00
2018-04-27T01:01:00.417Z,4.50
2018-04-27T01:02:00.407Z,3.70
2018-04-27T01:03:00.393Z,4.40
2018-04-27T01:04:00.382Z,5.10
2018-04-27T01:05:00.373Z,3.20
2018-04-27T01:06:00.362Z,4.10
2018-04-27T01:07:00.352Z,6.60
2018-04-27T01:08:00.340Z,4.80
2018-04-27T01:09:00.331Z,3.70
2018-04-27T01:10:00.318Z,4.10
2018-04-27T01:11:00.310Z,4.30
2018-04-27T01:12:00.299Z,4.90
2018-04-27T01:13:00.289Z,3.40
2018-04-27T01:14:00.276Z,6.00
2018-04-27T01:15:00.266Z,7.80
2018-04-27T01:16:00.255Z,4.80
2018-04-27T01:17:00.244Z,3.20
2018-04-27T01:18:00.239Z,4.70
2018-04-27T01:19:00.225Z,3.00
2018-04-27T01:20:00.211Z,4.80
2018-04-27T01:21:00.201Z,7.60
2018-04-27T01:22:00.190Z,4.40
2018-04-27T01:23:00.180Z,2.90
2018-04-27T01:24:00.168Z,5.00
2018-04-27T01:25:00.158Z,4.00
2018-04-27T01:26:00.146Z,3.20
2018-04-27T01:27:00.137Z,2.30
2018-04-27T01:28:00.124Z,3.20
2018-04-27T01:29:00.117Z,2.40
2018-04-27T01:30:00.105Z,4.80
2018-04-27T01:31:00.092Z,5.40
2018-04-27T01:32:00.081Z,5.90
2018-04-27T01:33:00.070Z,4.90
2018-04-27T01:34:00.061Z,7.80
2018-04-27T01:35:00.050Z,5.90
2018-04-27T01:36:00.037Z,5.10
2018-04-27T01:37:00.025Z,5.30
2018-04-27T01:38:00.015Z,6.00
2018-04-27T01:39:00.006Z,4.10
2018-04-27T01:39:59.991Z,3.80
2018-04-27T01:40:59.980Z,3.80
2018-04-27T01:41:59.972Z,4.80
2018-04-27T01:42:59.964Z,4.60
2018-04-27T01:43:59.950Z,3.90
2018-04-27T01:44:59.939Z,4.80
2018-04-27T01:45:59.927Z,4.20
2018-04-27T01:46:59.918Z,4.10
2018-04-27T01:47:59.908Z,3.70
2018-04-27T01:48:59.895Z,4.10
2018-04-27T01:49:59.886Z,3.60
2018-04-27T01:50:59.874Z,3.90
2018-04-27T01:51:59.863Z,3.30
2018-04-27T01:52:59.851Z,4.40
2018-04-27T01:53:59.839Z,2.70
2018-04-27T01:54:59.829Z,3.60
2018-04-27T01:55:59.818Z,4.60
2018-04-27T01:56:59.809Z,5.90
2018-04-27T01:57:59.796Z,3.20
2018-04-27T01:58:59.786Z,3.80
2018-04-27T01:59:59.774Z,3.80
2018-04-27T02:00:59.769Z,5.30
2018-04-27T02:01:59.750Z,5.30
2018-04-27T02:02:59.743Z,3.10
2018-04-27T02:03:59.727Z,4.90
2018-04-27T02:04:59.718Z,3.40
2018-04-27T02:05:59.707Z,5.40
2018-04-27T02:06:59.697Z,5.60
2018-04-27T02:07:59.683Z,4.10
2018-04-27T02:08:59.674Z,7.00
2018-04-27T02:09:59.661Z,4.40
2018-04-27T02:10:59.649Z,6.30
2018-04-27T02:11:59.641Z,3.40
2018-04-27T02:12:59.625Z,5.10
2018-04-27T02:13:59.616Z,2.50
2018-04-27T02:14:59.609Z,7.70
2018-04-27T02:15:59.592Z,4.70
2018-04-27T02:16:59.582Z,4.10
2018-04-27T02:17:59.571Z,3.90
2018-04-27T02:18:59.561Z,4.20
2018-04-27T02:19:59.547Z,4.00
2018-04-27T02:20:59.544Z,7.80
2018-04-27T02:21:59.526Z,4.50
2018-04-27T02:22:59.515Z,6.00
2018-04-27T02:23:59.505Z,4.50
2018-04-27T02:24:59.492Z,6.80
2018-04-27T02:25:59.481Z,5.80
2018-04-27T02:26:59.468Z,3.00
2018-04-27T02:27:59.459Z,4.00
2018-04-27T02:28:59.448Z,4.90
2018-04-27T02:29:59.435Z,4.10
2018-04-27T02:30:59.423Z,4.00
2018-04-27T02:31:59.415Z,4.80
2018-04-27T02:32:59.400Z,5.90
2018-04-27T02:33:59.388Z,2.60
2018-04-27T02:34:59.375Z,5.00
2018-04-27T02:35:59.365Z,2.80
2018-04-27T02:36:59.356Z,3.50
2018-04-27T02:37:59.342Z,5.40
2018-04-27T02:38:59.331Z,5.70
2018-04-27T02:39:59.321Z,8.30
2018-04-27T02:40:59.308Z,3.90
2018-04-27T02:41:59.294Z,7.00
2018-04-27T02:42:59.283Z,5.90
2018-04-27T02:43:59.272Z,6.10
2018-04-27T02:44:59.268Z,4.10
2018-04-27T02:45:59.250Z,5.90
2018-04-27T02:46:59.239Z,4.80
2018-04-27T02:47:59.227Z,4.50
2018-04-27T02:48:59.212Z,5.10
2018-04-27T02:49:59.204Z,5.50
2018-04-27T02:50:59.191Z,6.80
2018-04-27T02:51:59.182Z,4.80
2018-04-27T02:52:59.168Z,5.60
2018-04-27T02:53:59.155Z,3.00
2018-04-27T02:54:59.149Z,4.00
2018-04-27T02:55:59.135Z,5.90
2018-04-27T02:56:59.127Z,4.40
2018-04-27T02:57:59.112Z,2.30
2018-04-27T02:58:59.101Z,3.90
2018-04-27T02:59:59.091Z,5.30
2018-04-27T03:00:59.078Z,3.50
2018-04-27T03:01:59.066Z,4.70
2018-04-27T03:02:59.052Z,4.30
2018-04-27T03:03:59.043Z,5.40
2018-04-27T03:04:59.034Z,6.00
2018-04-27T03:05:59.027Z,7.30
2018-04-27T03:06:59.019Z,2.90
2018-04-27T03:07:58.997Z,4.20
2018-04-27T03:08:58.984Z,3.30
2018-04-27T03:09:58.973Z,5.50
2018-04-27T03:10:58.968Z,5.10
2018-04-27T03:11:58.949Z,3.00
2018-04-27T03:12:58.939Z,4.80
2018-04-27T03:13:58.927Z,4.50
2018-04-27T03:14:58.914Z,6.20
2018-04-27T03:15:58.905Z,6.20
2018-04-27T03:16:58.891Z,4.50
2018-04-27T03:17:58.881Z,4.60
2018-04-27T03:18:58.872Z,5.00
2018-04-27T03:19:58.857Z,4.10
2018-04-27T03:20:58.846Z,4.40
2018-04-27T03:21:58.834Z,2.90
2018-04-27T03:22:58.822Z,4.90
2018-04-27T03:23:58.840Z,6.00
2018-04-27T03:24:58.799Z,6.20
2018-04-27T03:25:58.786Z,7.10
2018-04-27T03:26:58.774Z,4.70
2018-04-27T03:27:58.765Z,5.70
2018-04-27T03:28:58.752Z,3.30
2018-04-27T03:29:58.744Z,4.40
2018-04-27T03:30:58.732Z,4.20
2018-04-27T03:31:58.718Z,6.90
2018-04-27T03:32:58.705Z,7.20
2018-04-27T03:33:58.697Z,5.00
2018-04-27T03:34:58.688Z,4.50
2018-04-27T03:35:58.672Z,9.00
2018-04-27T03:36:58.660Z,3.70
2018-04-27T03:37:58.649Z,6.00
2018-04-27T03:38:58.636Z,4.70
2018-04-27T03:39:58.623Z,9.30
2018-04-27T03:40:58.613Z,7.50
2018-04-27T03:41:58.600Z,5.20
2018-04-27T03:42:58.593Z,7.20
2018-04-27T03:43:58.577Z,5.40
2018-04-27T03:44:58.564Z,7.60
2018-04-27T03:45:58.555Z,7.70
2018-04-27T03:46:58.540Z,5.20
2018-04-27T03:47:58.528Z,7.20
2018-04-27T03:48:58.513Z,5.50
2018-04-27T03:49:58.503Z,4.80
2018-04-27T03:50:58.493Z,5.10
2018-04-27T03:51:58.547Z,3.70
2018-04-27T03:52:58.467Z,4.80
2018-04-27T03:53:58.456Z,5.40
2018-04-27T03:54:58.444Z,4.10
2018-04-27T03:55:58.433Z,3.90
2018-04-27T03:56:58.429Z,4.40
2018-04-27T03:57:58.410Z,6.50
2018-04-27T03:58:58.401Z,3.70
2018-04-27T03:59:58.383Z,6.50
2018-04-27T04:00:58.371Z,4.80
2018-04-27T04:01:58.361Z,7.80
2018-04-27T04:02:58.350Z,6.40
2018-04-27T04:03:58.333Z,5.80
2018-04-27T04:04:58.322Z,7.20
2018-04-27T04:05:58.310Z,5.00
2018-04-27T04:06:58.296Z,3.90
2018-04-27T04:07:58.287Z,4.60
2018-04-27T04:08:58.273Z,6.80
2018-04-27T04:09:58.262Z,7.70
2018-04-27T04:10:58.248Z,7.10
2018-04-27T04:11:58.236Z,3.80
2018-04-27T04:12:58.222Z,5.00
2018-04-27T04:13:58.210Z,6.00
2018-04-27T04:14:58.200Z,5.40
2018-04-27T04:15:58.184Z,4.70
2018-04-27T04:16:58.174Z,9.30
2018-04-27T04:17:58.164Z,5.10
2018-04-27T04:18:58.151Z,6.20
2018-04-27T04:19:58.137Z,7.80
2018-04-27T04:20:58.128Z,9.10
2018-04-27T04:21:58.114Z,8.70
2018-04-27T04:22:58.105Z,5.80
2018-04-27T04:23:58.087Z,5.50
2018-04-27T04:24:58.074Z,6.30
2018-04-27T04:25:58.064Z,6.90
2018-04-27T04:26:58.051Z,4.30
2018-04-27T04:27:58.040Z,5.20
2018-04-27T04:28:58.031Z,3.10
2018-04-27T04:29:58.012Z,4.60
2018-04-27T04:30:58.002Z,5.20
2018-04-27T04:31:57.988Z,5.10
2018-04-27T04:32:57.981Z,6.90
2018-04-27T04:33:57.965Z,2.80
2018-04-27T04:34:57.957Z,5.50
2018-04-27T04:35:57.939Z,6.00
2018-04-27T04:36:57.928Z,3.80
2018-04-27T04:37:57.916Z,5.10
2018-04-27T04:38:57.904Z,6.40
2018-04-27T04:39:57.892Z,6.20
2018-04-27T04:40:57.880Z,5.40
2018-04-27T04:41:57.866Z,5.00
2018-04-27T04:42:57.853Z,4.70
2018-04-27T04:43:57.844Z,5.20
2018-04-27T04:44:57.832Z,5.80
2018-04-27T04:45:57.819Z,4.30
2018-04-27T04:46:57.807Z,7.10
2018-04-27T04:47:57.793Z,8.70
2018-04-27T04:48:57.782Z,6.70
2018-04-27T04:49:57.769Z,4.00
2018-04-27T04:50:57.758Z,3.90
2018-04-27T04:51:57.746Z,5.60
2018-04-27T04:52:57.735Z,6.50
2018-04-27T04:53:57.721Z,4.20
2018-04-27T04:54:57.712Z,9.30
2018-04-27T04:55:57.699Z,7.30
2018-04-27T04:56:57.686Z,3.80
2018-04-27T04:57:57.676Z,7.70
2018-04-27T04:58:57.671Z,4.40
2018-04-27T04:59:57.658Z,6.10
2018-04-27T05:00:57.648Z,6.50
2018-04-27T05:01:57.639Z,5.10
2018-04-27T05:02:57.669Z,5.00
2018-04-27T05:03:57.622Z,6.80
2018-04-27T05:04:57.603Z,5.70
2018-04-27T05:05:57.599Z,6.00
2018-04-27T05:06:57.585Z,5.90
2018-04-27T05:07:57.576Z,3.70
2018-04-27T05:08:57.564Z,4.80
2018-04-27T05:09:57.561Z,4.30
2018-04-27T05:10:57.550Z,8.50
2018-04-27T05:11:57.535Z,4.40
2018-04-27T05:12:57.522Z,10.40
2018-04-27T05:13:57.519Z,12.20
2018-04-27T05:14:57.507Z,6.10
2018-04-27T05:15:57.493Z,8.50
2018-04-27T05:16:57.483Z,7.30
2018-04-27T05:17:57.474Z,5.50
2018-04-27T05:18:57.465Z,4.90
2018-04-27T05:19:57.455Z,6.30
2018-04-27T05:20:57.446Z,5.90
2018-04-27T05:21:57.436Z,6.50
2018-04-27T05:22:57.425Z,4.30
2018-04-27T05:23:57.416Z,10.10
2018-04-27T05:24:57.404Z,8.10
2018-04-27T05:25:57.397Z,12.90
2018-04-27T05:26:57.387Z,11.10
2018-04-27T05:27:57.374Z,15.00
2018-04-27T05:28:57.370Z,12.70
2018-04-27T05:29:57.360Z,16.70
2018-04-27T05:30:57.352Z,10.20
2018-04-27T05:31:57.337Z,11.80
2018-04-27T05:32:57.329Z,15.60
2018-04-27T05:33:57.319Z,10.60
2018-04-27T05:34:57.308Z,16.80
2018-04-27T05:35:57.302Z,11.60
2018-04-27T05:36:57.289Z,12.10
2018-04-27T05:37:57.337Z,5.40
2018-04-27T05:38:57.272Z,7.20
2018-04-27T05:39:57.259Z,16.70
2018-04-27T05:40:57.250Z,8.60
2018-04-27T05:41:57.239Z,9.60
2018-04-27T05:42:57.231Z,8.40
2018-04-27T05:43:57.219Z,8.70
2018-04-27T05:44:57.212Z,16.70
2018-04-27T05:45:57.200Z,11.10
2018-04-27T05:46:57.195Z,8.30
2018-04-27T05:47:57.180Z,9.90
2018-04-27T05:48:57.173Z,14.70
2018-04-27T05:49:57.158Z,6.30
2018-04-27T05:50:57.147Z,9.40
2018-04-27T05:51:57.136Z,8.50
2018-04-27T05:52:57.129Z,9.00
2018-04-27T05:53:57.119Z,14.10
2018-04-27T05:54:57.113Z,7.00
2018-04-27T05:55:57.103Z,11.30
2018-04-27T05:56:57.093Z,13.50
2018-04-27T05:57:57.077Z,10.00
2018-04-27T05:58:57.067Z,7.00
2018-04-27T05:59:57.055Z,6.00
2018-04-27T06:00:57.048Z,9.90
2018-04-27T06:01:57.035Z,13.90
2018-04-27T06:02:57.025Z,16.20
2018-04-27T06:03:57.015Z,8.60
2018-04-27T06:04:57.003Z,15.80
2018-04-27T06:05:56.994Z,9.40
2018-04-27T06:06:56.984Z,8.60
2018-04-27T06:07:56.975Z,8.50
2018-04-27T06:08:56.964Z,9.90
2018-04-27T06:09:56.955Z,20.50
2018-04-27T06:10:56.945Z,13.30
2018-04-27T06:11:56.936Z,8.20
2018-04-27T06:12:56.924Z,6.90
2018-04-27T06:13:56.914Z,6.90
2018-04-27T06:14:56.906Z,9.40
2018-04-27T06:15:56.892Z,13.00
2018-04-27T06:16:56.897Z,6.80
2018-04-27T06:17:56.881Z,8.90
2018-04-27T06:18:56.864Z,8.40
2018-04-27T06:19:56.858Z,5.00
2018-04-27T06:20:56.840Z,10.90
2018-04-27T06:21:56.841Z,8.00
2018-04-27T06:22:56.824Z,6.30
2018-04-27T06:23:56.812Z,8.40
2018-04-27T06:24:56.800Z,5.40
2018-04-27T06:25:56.798Z,8.50
2018-04-27T06:26:56.784Z,6.90
2018-04-27T06:27:56.771Z,5.80
2018-04-27T06:28:56.761Z,7.20
2018-04-27T06:29:56.753Z,7.90
2018-04-27T06:30:56.744Z,5.80
2018-04-27T06:31:56.736Z,13.10
2018-04-27T06:32:56.721Z,11.70
2018-04-27T06:33:56.712Z,9.20
2018-04-27T06:34:56.700Z,7.40
2018-04-27T06:35:56.696Z,7.80
2018-04-27T06:36:56.683Z,8.80
2018-04-27T06:37:56.671Z,8.20
2018-04-27T06:38:56.662Z,6.70
2018-04-27T06:39:56.648Z,7.50
2018-04-27T06:40:56.641Z,7.80
2018-04-27T06:41:56.629Z,5.70
2018-04-27T06:42:56.620Z,10.70
2018-04-27T06:43:56.610Z,7.10
2018-04-27T06:44:56.598Z,6.40
2018-04-27T06:45:56.591Z,7.90
2018-04-27T06:46:56.580Z,8.20
2018-04-27T06:47:56.570Z,9.70
2018-04-27T06:48:56.564Z,6.10
2018-04-27T06:49:56.547Z,7.20
2018-04-27T06:50:56.535Z,8.30
2018-04-27T06:51:56.525Z,8.10
2018-04-27T06:52:56.515Z,6.20
2018-04-27T06:53:56.504Z,9.80
2018-04-27T06:54:56.496Z,9.00
2018-04-27T06:55:56.485Z,8.60
2018-04-27T06:56:56.475Z,9.60
2018-04-27T06:57:56.463Z,12.20
2018-04-27T06:58:56.455Z,10.70
2018-04-27T06:59:56.444Z,8.20
2018-04-27T07:00:56.437Z,11.10
2018-04-27T07:01:56.429Z,6.40
2018-04-27T07:02:56.416Z,8.60
2018-04-27T07:03:56.404Z,9.70
2018-04-27T07:04:56.391Z,8.20
2018-04-27T07:05:56.385Z,7.40
2018-04-27T07:06:56.376Z,7.20
2018-04-27T07:07:56.362Z,8.60
2018-04-27T07:08:56.354Z,5.70
2018-04-27T07:09:56.344Z,10.20
2018-04-27T07:10:56.345Z,8.80
2018-04-27T07:11:56.324Z,8.10
2018-04-27T07:12:56.313Z,8.80
2018-04-27T07:13:56.306Z,6.60
2018-04-27T07:14:56.294Z,16.30
2018-04-27T07:15:56.285Z,20.30
2018-04-27T07:16:56.326Z,11.90
2018-04-27T07:17:56.266Z,9.90
2018-04-27T07:18:56.257Z,6.60
2018-04-27T07:19:56.244Z,7.00
2018-04-27T07:20:56.237Z,5.90
2018-04-27T07:21:56.226Z,9.50
2018-04-27T07:22:56.216Z,7.40
2018-04-27T07:23:56.207Z,10.30
2018-04-27T07:24:56.197Z,8.60
2018-04-27T07:25:56.229Z,9.90
2018-04-27T07:26:56.179Z,10.10
2018-04-27T07:27:56.170Z,6.10
2018-04-27T07:28:56.159Z,5.50
2018-04-27T07:29:56.154Z,9.40
2018-04-27T07:30:56.142Z,5.00
2018-04-27T07:31:56.130Z,7.40
2018-04-27T07:32:56.125Z,7.90
2018-04-27T07:33:56.113Z,6.80
2018-04-27T07:34:56.111Z,8.60
2018-04-27T07:35:56.099Z,7.20
2018-04-27T07:36:56.089Z,9.00
2018-04-27T07:37:56.074Z,9.70
2018-04-27T07:38:56.074Z,9.60
2018-04-27T07:39:56.095Z,7.60
2018-04-27T07:40:56.045Z,8.30
2018-04-27T07:41:56.040Z,11.50
2018-04-27T07:42:56.030Z,6.80
2018-04-27T07:43:56.021Z,9.00
2018-04-27T07:44:56.010Z,5.90
2018-04-27T07:45:56.004Z,6.90
2018-04-27T07:46:55.991Z,6.40
2018-04-27T07:47:55.984Z,6.60
2018-04-27T07:48:55.975Z,8.00
2018-04-27T07:49:55.967Z,8.50
2018-04-27T07:50:55.957Z,9.10
2018-04-27T07:51:55.947Z,9.70
2018-04-27T07:52:55.941Z,5.70
2018-04-27T07:53:55.930Z,8.40
2018-04-27T07:54:55.926Z,12.50
2018-04-27T07:55:55.915Z,7.50
2018-04-27T07:56:55.905Z,7.60
2018-04-27T07:57:55.901Z,8.00
2018-04-27T07:58:55.887Z,7.80
2018-04-27T07:59:55.876Z,7.90
2018-04-27T08:00:55.865Z,9.60
2018-04-27T08:01:55.868Z,11.00
2018-04-27T08:02:55.853Z,6.70
2018-04-27T08:03:55.839Z,10.50
2018-04-27T08:04:55.834Z,7.20
2018-04-27T08:05:55.825Z,9.10
2018-04-27T08:06:55.816Z,8.90
2018-04-27T08:07:55.809Z,11.50
2018-04-27T08:08:55.911Z,9.40
2018-04-27T08:09:55.792Z,9.10
2018-04-27T08:10:55.784Z,6.40
2018-04-27T08:11:55.773Z,7.30
2018-04-27T08:12:55.767Z,7.90
2018-04-27T08:13:55.759Z,7.60
2018-04-27T08:14:55.750Z,12.30
2018-04-27T08:15:55.740Z,13.40
2018-04-27T08:16:55.733Z,9.60
2018-04-27T08:17:55.727Z,10.20
2018-04-27T08:18:55.716Z,9.50
2018-04-27T08:19:55.708Z,10.90
2018-04-27T08:20:55.697Z,12.10
2018-04-27T08:21:55.690Z,13.40
2018-04-27T08:22:55.683Z,11.60
2018-04-27T08:23:55.674Z,11.90
2018-04-27T08:24:55.669Z,9.90
2018-04-27T08:25:55.662Z,11.20
2018-04-27T08:26:55.652Z,9.40
2018-04-27T08:27:55.643Z,11.80
2018-04-27T08:28:55.635Z,8.60
2018-04-27T08:29:55.627Z,5.90
2018-04-27T08:30:55.621Z,5.80
2018-04-27T08:31:55.610Z,12.40
2018-04-27T08:32:55.602Z,9.10
2018-04-27T08:33:55.595Z,9.30
2018-04-27T08:34:55.591Z,8.20
2018-04-27T08:35:55.585Z,7.50
2018-04-27T08:36:55.572Z,8.40
2018-04-27T08:37:55.567Z,14.90
2018-04-27T08:38:55.561Z,12.20
2018-04-27T08:39:55.550Z,8.00
2018-04-27T08:40:55.543Z,7.30
2018-04-27T08:41:55.534Z,5.00
2018-04-27T08:42:55.533Z,7.40
2018-04-27T08:43:55.520Z,8.20
2018-04-27T08:44:55.516Z,10.90
2018-04-27T08:45:55.504Z,9.00
2018-04-27T08:46:55.498Z,8.80
2018-04-27T08:47:55.491Z,11.40
2018-04-27T08:48:55.483Z,5.40
2018-04-27T08:49:55.478Z,7.70
2018-04-27T08:50:55.476Z,6.50
2018-04-27T08:51:55.460Z,6.50
2018-04-27T08:52:55.456Z,6.40
2018-04-27T08:53:55.449Z,6.70
2018-04-27T08:54:55.440Z,8.40
2018-04-27T08:55:55.432Z,8.20
2018-04-27T08:56:55.425Z,9.10
2018-04-27T08:57:55.417Z,5.00
2018-04-27T08:58:55.413Z,10.10
2018-04-27T08:59:55.402Z,7.30
2018-04-27T09:00:55.400Z,7.60
2018-04-27T09:01:55.388Z,6.80
2018-04-27T09:02:55.383Z,4.80
2018-04-27T09:03:55.375Z,5.80
2018-04-27T09:04:55.371Z,8.70
2018-04-27T09:05:55.362Z,5.50
2018-04-27T09:06:55.352Z,6.80
2018-04-27T09:07:55.347Z,8.30
2018-04-27T09:08:55.340Z,10.00
2018-04-27T09:09:55.332Z,7.40
2018-04-27T09:10:55.327Z,8.40
2018-04-27T09:11:55.317Z,7.70
2018-04-27T09:12:55.312Z,7.40
2018-04-27T09:13:55.303Z,7.60
2018-04-27T09:14:55.299Z,6.30
2018-04-27T09:15:55.291Z,7.90
2018-04-27T09:16:55.282Z,6.60
2018-04-27T09:17:55.277Z,10.50
2018-04-27T09:18:55.269Z,6.80
2018-04-27T09:19:55.262Z,7.60
2018-04-27T09:20:55.257Z,9.90
2018-04-27T09:21:55.253Z,10.00
2018-04-27T09:22:55.240Z,11.10
2018-04-27T09:23:55.234Z,9.10
2018-04-27T09:24:55.229Z,10.60
2018-04-27T09:25:55.220Z,7.50
2018-04-27T09:26:55.273Z,10.50
2018-04-27T09:27:55.207Z,6.00
2018-04-27T09:28:55.200Z,8.20
2018-04-27T09:29:55.196Z,12.30
2018-04-27T09:30:55.187Z,15.00
2018-04-27T09:31:55.186Z,9.70
2018-04-27T09:32:55.178Z,7.90
2018-04-27T09:33:55.167Z,7.20
2018-04-27T09:34:55.163Z,8.00
2018-04-27T09:35:55.158Z,9.50
2018-04-27T09:36:55.148Z,7.10
2018-04-27T09:37:55.139Z,9.90
2018-04-27T09:38:55.136Z,9.10
2018-04-27T09:39:55.130Z,6.20
2018-04-27T09:40:55.121Z,7.70
2018-04-27T09:41:55.120Z,6.80
2018-04-27T09:42:55.109Z,6.90
2018-04-27T09:43:55.103Z,7.70
2018-04-27T09:44:55.096Z,10.10
2018-04-27T09:45:55.090Z,9.60
2018-04-27T09:46:55.088Z,11.30
2018-04-27T09:47:55.080Z,11.60
2018-04-27T09:48:55.075Z,6.80
2018-04-27T09:49:55.068Z,9.50
2018-04-27T09:50:55.059Z,7.50
2018-04-27T09:51:55.056Z,6.00
2018-04-27T09:52:55.052Z,8.50
2018-04-27T09:53:55.047Z,7.80
2018-04-27T09:54:55.038Z,8.40
2018-04-27T09:55:55.029Z,8.00
2018-04-27T09:56:55.026Z,9.40
2018-04-27T09:57:55.020Z,9.00
2018-04-27T09:58:55.014Z,6.90
2018-04-27T09:59:55.008Z,6.80
2018-04-27T10:00:55.003Z,7.40
2018-04-27T10:01:54.998Z,8.90
2018-04-27T10:02:54.995Z,9.20
2018-04-27T10:03:54.987Z,9.40
2018-04-27T10:04:54.981Z,10.60
2018-04-27T10:05:54.974Z,10.30
2018-04-27T10:06:54.970Z,10.90
2018-04-27T10:07:54.968Z,11.20
2018-04-27T10:08:54.961Z,9.20
2018-04-27T10:09:54.962Z,12.40
2018-04-27T10:10:54.955Z,6.10
2018-04-27T10:11:54.945Z,5.00
2018-04-27T10:12:54.941Z,7.30
2018-04-27T10:13:54.939Z,8.80
2018-04-27T10:14:54.938Z,8.00
2018-04-27T10:15:54.928Z,7.20
2018-04-27T10:16:54.922Z,9.80
2018-04-27T10:17:54.920Z,8.20
2018-04-27T10:18:54.915Z,11.70
2018-04-27T10:19:54.910Z,8.50
2018-04-27T10:20:54.905Z,8.60
2018-04-27T10:21:54.902Z,8.20
2018-04-27T10:22:54.897Z,11.30
2018-04-27T10:23:54.892Z,8.50
2018-04-27T10:24:54.896Z,9.20
2018-04-27T10:25:54.888Z,7.90
2018-04-27T10:26:54.881Z,7.20
2018-04-27T10:27:54.876Z,9.50
2018-04-27T10:28:54.875Z,10.30
2018-04-27T10:29:54.868Z,6.40
2018-04-27T10:30:54.942Z,6.40
2018-04-27T10:31:54.858Z,8.00
2018-04-27T10:32:54.855Z,7.00
2018-04-27T10:33:54.849Z,8.00
2018-04-27T10:34:54.847Z,7.10
2018-04-27T10:35:54.841Z,9.30
2018-04-27T10:36:54.837Z,8.50
2018-04-27T10:37:54.834Z,12.30
2018-04-27T10:38:54.830Z,11.40
2018-04-27T10:39:54.826Z,9.80
2018-04-27T10:40:54.820Z,9.40
2018-04-27T10:41:54.815Z,9.40
2018-04-27T10:42:54.885Z,8.90
2018-04-27T10:43:54.812Z,7.10
2018-04-27T10:44:54.814Z,8.30
2018-04-27T10:45:54.803Z,10.40
2018-04-27T10:46:54.800Z,6.10
2018-04-27T10:47:54.796Z,6.90
2018-04-27T10:48:54.790Z,7.80
2018-04-27T10:49:54.786Z,9.10
2018-04-27T10:50:54.782Z,7.70
2018-04-27T10:51:54.780Z,6.80
2018-04-27T10:52:54.777Z,8.20
2018-04-27T10:53:54.771Z,7.20
2018-04-27T10:54:54.772Z,9.60
2018-04-27T10:55:54.767Z,8.00
2018-04-27T10:56:54.762Z,8.70
2018-04-27T10:57:54.760Z,8.90
2018-04-27T10:58:54.755Z,6.80
2018-04-27T10:59:54.752Z,11.40
2018-04-27T11:00:54.752Z,9.10
2018-04-27T11:01:54.747Z,8.40
2018-04-27T11:02:54.744Z,9.50
2018-04-27T11:03:54.740Z,7.80
2018-04-27T11:04:54.736Z,8.70
2018-04-27T11:05:54.740Z,7.90
2018-04-27T11:06:54.729Z,9.30
2018-04-27T11:07:54.726Z,9.70
2018-04-27T11:08:54.725Z,9.40
2018-04-27T11:09:54.723Z,10.10
2018-04-27T11:10:54.763Z,7.40
2018-04-27T11:11:54.715Z,9.30
2018-04-27T11:12:54.710Z,7.80
2018-04-27T11:13:54.707Z,7.40
2018-04-27T11:14:54.704Z,7.90
2018-04-27T11:15:54.699Z,8.80
2018-04-27T11:16:54.804Z,9.10
2018-04-27T11:17:54.694Z,7.30
2018-04-27T11:18:54.692Z,9.40
2018-04-27T11:19:54.689Z,9.70
2018-04-27T11:20:54.687Z,9.50
2018-04-27T11:21:54.681Z,8.70
2018-04-27T11:22:54.689Z,10.20
2018-04-27T11:23:54.680Z,8.70
2018-04-27T11:24:54.672Z,9.20
2018-04-27T11:25:54.674Z,10.00
2018-04-27T11:26:54.668Z,6.40
2018-04-27T11:27:54.663Z,7.90
2018-04-27T11:28:54.662Z,9.60
2018-04-27T11:29:54.659Z,8.30
2018-04-27T11:30:54.655Z,8.30
2018-04-27T11:31:54.651Z,9.00
2018-04-27T11:32:54.653Z,9.90
2018-04-27T11:33:54.646Z,9.00
2018-04-27T11:34:54.646Z,9.30
2018-04-27T11:35:54.646Z,11.90
2018-04-27T11:36:54.640Z,13.90
2018-04-27T11:37:54.637Z,12.40
2018-04-27T11:38:54.636Z,11.90
2018-04-27T11:39:54.627Z,11.20
2018-04-27T11:40:54.626Z,9.50
2018-04-27T11:41:54.624Z,11.40
2018-04-27T11:42:54.621Z,7.30
2018-04-27T11:43:54.616Z,8.70
2018-04-27T11:44:54.619Z,8.30
2018-04-27T11:45:54.609Z,8.80
2018-04-27T11:46:54.609Z,11.40
2018-04-27T11:47:54.605Z,15.40
2018-04-27T11:48:54.608Z,18.60
2018-04-27T11:49:54.601Z,9.40
2018-04-27T11:50:54.598Z,6.30
2018-04-27T11:51:54.601Z,12.10
2018-04-27T11:52:54.592Z,6.40
2018-04-27T11:53:54.592Z,8.00
2018-04-27T11:54:54.589Z,8.90
2018-04-27T11:55:54.589Z,9.80
2018-04-27T11:56:54.581Z,8.00
2018-04-27T11:57:54.581Z,7.90
2018-04-27T11:58:54.577Z,8.10
2018-04-27T11:59:54.577Z,9.80
2018-04-27T12:00:54.571Z,6.80
2018-04-27T12:01:54.572Z,11.00
2018-04-27T12:02:54.566Z,9.40
2018-04-27T12:03:54.563Z,8.20
2018-04-27T12:04:54.561Z,7.60
2018-04-27T12:05:54.558Z,7.70
2018-04-27T12:06:54.555Z,6.90
2018-04-27T12:07:54.554Z,5.00
2018-04-27T12:08:54.547Z,9.20
2018-04-27T12:09:54.551Z,11.90
2018-04-27T12:10:54.543Z,5.70
2018-04-27T12:11:54.543Z,7.70
2018-04-27T12:12:54.543Z,8.60
2018-04-27T12:13:54.537Z,7.10
2018-04-27T12:14:54.534Z,7.40
2018-04-27T12:15:54.533Z,9.80
2018-04-27T12:16:54.529Z,9.00
2018-04-27T12:17:54.530Z,7.30
2018-04-27T12:18:54.528Z,6.20
2018-04-27T12:19:54.529Z,8.00
2018-04-27T12:20:54.518Z,12.10
2018-04-27T12:21:54.520Z,8.10
2018-04-27T12:22:54.515Z,6.50
2018-04-27T12:23:54.515Z,9.00
2018-04-27T12:24:54.511Z,9.10
2018-04-27T12:25:54.509Z,8.50
2018-04-27T12:26:54.512Z,6.00
2018-04-27T12:27:54.517Z,6.00
2018-04-27T12:28:54.501Z,7.70
2018-04-27T12:29:54.499Z,15.50
2018-04-27T12:30:54.576Z,17.10
2018-04-27T12:31:54.610Z,17.20
2018-04-27T12:32:54.491Z,17.90
2018-04-27T12:33:54.488Z,17.10
2018-04-27T12:34:54.487Z,11.50
2018-04-27T12:35:54.486Z,13.50
2018-04-27T12:36:54.483Z,13.70
2018-04-27T12:37:54.485Z,12.60
2018-04-27T12:38:54.533Z,16.60
2018-04-27T12:39:54.475Z,13.70
2018-04-27T12:40:54.474Z,9.90
2018-04-27T12:41:54.551Z,19.90
2018-04-27T12:42:54.472Z,14.70
2018-04-27T12:43:54.468Z,9.20
2018-04-27T12:44:54.469Z,8.10
2018-04-27T12:45:54.465Z,4.70
2018-04-27T12:46:54.462Z,9.10
2018-04-27T12:47:54.460Z,8.10
2018-04-27T12:48:54.460Z,10.80
2018-04-27T12:49:54.455Z,9.30
2018-04-27T12:50:54.453Z,7.10
2018-04-27T12:51:54.452Z,7.30
2018-04-27T12:52:54.448Z,8.60
2018-04-27T12:53:54.448Z,6.90
2018-04-27T12:54:54.448Z,8.60
2018-04-27T12:55:54.442Z,7.20
2018-04-27T12:56:54.441Z,7.70
2018-04-27T12:57:54.441Z,6.20
2018-04-27T12:58:54.438Z,5.50
2018-04-27T12:59:54.444Z,8.10
2018-04-27T13:00:54.435Z,7.90
2018-04-27T13:01:54.433Z,5.30
2018-04-27T13:02:54.433Z,7.70
2018-04-27T13:03:54.431Z,7.60
2018-04-27T13:04:54.428Z,6.90
2018-04-27T13:05:54.425Z,7.60
2018-04-27T13:06:54.429Z,5.20
2018-04-27T13:07:54.504Z,4.90
2018-04-27T13:08:54.423Z,6.20
2018-04-27T13:09:54.420Z,8.10
2018-04-27T13:10:54.415Z,4.80
2018-04-27T13:11:54.421Z,7.20
2018-04-27T13:12:54.412Z,5.60
2018-04-27T13:13:54.410Z,8.20